createdAt,value
2023-01-18T00:01:40.331Z,3.10
2023-01-18T00:04:12.230Z,3.10
2023-01-18T00:06:43.636Z,3.10
2023-01-18T00:09:17.286Z,3.10
2023-01-18T00:11:51.801Z,3.20
2023-01-18T00:14:22.970Z,3.20
2023-01-18T00:16:54.279Z,3.20
2023-01-18T00:19:24.958Z,3.30
2023-01-18T00:21:58.860Z,3.20
2023-01-18T00:24:32.652Z,3.30
2023-01-18T00:27:04.001Z,3.30
2023-01-18T00:29:35.114Z,3.30
2023-01-18T00:32:07.024Z,3.30
2023-01-18T00:34:39.081Z,3.30
2023-01-18T00:37:10.438Z,3.30
2023-01-18T00:39:43.897Z,3.40
2023-01-18T00:42:27.713Z,3.40
2023-01-18T00:44:58.806Z,3.30
2023-01-18T00:47:29.998Z,3.40
2023-01-18T00:50:00.462Z,3.30
2023-01-18T00:52:33.951Z,3.40
2023-01-18T00:55:08.311Z,3.40
2023-01-18T00:57:39.860Z,3.40
2023-01-18T01:00:12.497Z,3.40
2023-01-18T01:02:45.159Z,3.50
2023-01-18T01:05:33.602Z,3.40
2023-01-18T01:08:06.091Z,3.40
2023-01-18T01:10:39.555Z,3.50
2023-01-18T01:13:24.803Z,3.50
2023-01-18T01:16:07.938Z,3.50
2023-01-18T01:18:52.463Z,3.60
2023-01-18T01:21:35.503Z,3.60
2023-01-18T01:24:19.647Z,3.50
2023-01-18T01:26:53.023Z,3.50
2023-01-18T01:29:24.197Z,3.50
2023-01-18T01:31:54.729Z,3.60
2023-01-18T01:34:27.341Z,3.60
2023-01-18T01:36:58.359Z,3.50
2023-01-18T01:39:29.485Z,3.60
2023-01-18T01:42:02.835Z,3.50
2023-01-18T01:44:53.116Z,3.50
2023-01-18T01:47:41.157Z,3.50
2023-01-18T01:50:20.367Z,3.50
2023-01-18T01:52:51.384Z,3.50
2023-01-18T01:55:30.007Z,3.50
2023-01-18T01:58:06.208Z,3.50
2023-01-18T02:00:37.932Z,3.50
2023-01-18T02:03:12.864Z,3.50
2023-01-18T02:05:46.784Z,3.40
2023-01-18T02:08:22.903Z,3.50
2023-01-18T02:10:55.428Z,3.50
2023-01-18T02:13:29.700Z,3.50
2023-01-18T02:16:12.509Z,3.50
2023-01-18T02:18:50.426Z,3.50
2023-01-18T02:21:23.254Z,3.50
2023-01-18T02:24:32.545Z,3.50
2023-01-18T02:27:08.490Z,3.50
2023-01-18T02:30:01.603Z,3.50
2023-01-18T02:32:52.059Z,3.40
2023-01-18T02:35:31.096Z,3.40
2023-01-18T02:38:10.118Z,3.40
2023-01-18T02:40:49.611Z,3.40
2023-01-18T02:43:35.253Z,3.40
2023-01-18T02:46:26.579Z,3.30
2023-01-18T02:48:58.392Z,3.30
2023-01-18T02:51:29.211Z,3.30
2023-01-18T02:54:01.008Z,3.30
2023-01-18T02:56:35.484Z,3.20
2023-01-18T02:59:12.760Z,3.30
2023-01-18T03:01:50.553Z,3.20
2023-01-18T03:04:25.559Z,3.30
2023-01-18T03:07:00.323Z,3.20
2023-01-18T03:09:33.003Z,3.20
2023-01-18T03:12:11.716Z,3.10
2023-01-18T03:14:51.086Z,3.20
2023-01-18T03:17:32.512Z,3.10
2023-01-18T03:20:09.336Z,3.10
2023-01-18T03:22:54.559Z,3.00
2023-01-18T03:25:31.187Z,3.00
2023-01-18T03:28:19.275Z,3.00
2023-01-18T03:31:03.848Z,2.90
2023-01-18T03:33:49.317Z,2.90
2023-01-18T03:36:24.439Z,3.00
2023-01-18T03:38:59.910Z,3.00
2023-01-18T03:41:35.880Z,2.90
2023-01-18T03:44:12.697Z,2.90
2023-01-18T03:46:44.291Z,2.90
2023-01-18T03:49:19.077Z,2.90
2023-01-18T03:51:58.637Z,2.90
2023-01-18T03:54:36.914Z,3.00
2023-01-18T03:57:11.187Z,2.90
2023-01-18T03:59:42.787Z,2.90
2023-01-18T04:02:14.200Z,3.00
2023-01-18T04:04:47.237Z,2.90
2023-01-18T04:07:18.366Z,2.90
2023-01-18T04:09:48.798Z,2.90
2023-01-18T04:12:19.996Z,2.90
2023-01-18T04:14:51.039Z,2.90
2023-01-18T04:17:22.179Z,2.90
2023-01-18T04:19:55.779Z,2.80
2023-01-18T04:22:27.041Z,2.80
2023-01-18T04:24:58.303Z,2.80
2023-01-18T04:27:29.652Z,2.70
2023-01-18T04:30:00.756Z,2.80
2023-01-18T04:32:32.934Z,2.80
2023-01-18T04:35:06.467Z,2.80
2023-01-18T04:37:38.461Z,2.80
2023-01-18T04:40:10.644Z,2.80
2023-01-18T04:42:41.775Z,2.80
2023-01-18T04:45:14.701Z,2.80
2023-01-18T04:47:46.065Z,2.80
2023-01-18T04:50:19.232Z,2.80
2023-01-18T04:52:50.416Z,2.80
2023-01-18T04:55:20.914Z,2.80
2023-01-18T04:57:58.490Z,2.80
2023-01-18T05:00:29.319Z,2.80
2023-01-18T05:03:00.728Z,2.80
2023-01-18T05:05:35.339Z,2.80
2023-01-18T05:08:06.720Z,2.80
2023-01-18T05:10:38.163Z,2.80
2023-01-18T05:13:09.894Z,2.70
2023-01-18T05:15:40.602Z,2.70
2023-01-18T05:18:11.789Z,2.70
2023-01-18T05:20:45.342Z,2.70
2023-01-18T05:23:16.825Z,2.70
2023-01-18T05:25:48.350Z,2.70
2023-01-18T05:28:19.934Z,2.70
2023-01-18T05:30:51.591Z,2.70
2023-01-18T05:33:23.441Z,2.70
2023-01-18T05:35:59.204Z,2.70
2023-01-18T05:38:30.426Z,2.70
2023-01-18T05:41:00.879Z,2.70
2023-01-18T05:43:34.171Z,2.70
2023-01-18T05:46:07.815Z,2.70
2023-01-18T05:48:38.961Z,2.70
2023-01-18T05:51:12.893Z,2.80
2023-01-18T05:53:44.019Z,2.80
2023-01-18T05:56:15.452Z,2.80
2023-01-18T05:58:46.797Z,2.80
2023-01-18T06:01:17.842Z,2.80
2023-01-18T06:03:49.826Z,2.80
2023-01-18T06:06:23.382Z,2.80
2023-01-18T06:08:55.511Z,2.80
2023-01-18T06:11:26.323Z,2.80
2023-01-18T06:13:57.518Z,2.90
2023-01-18T06:16:28.750Z,2.80
2023-01-18T06:18:59.989Z,2.90
2023-01-18T06:21:33.625Z,2.90
2023-01-18T06:24:04.773Z,3.00
2023-01-18T06:26:35.591Z,3.00
2023-01-18T06:29:06.779Z,3.00
2023-01-18T06:31:37.288Z,3.00
2023-01-18T06:34:09.651Z,3.00
2023-01-18T06:36:45.385Z,3.00
2023-01-18T06:39:16.517Z,3.10
2023-01-18T06:41:47.222Z,3.10
2023-01-18T06:44:18.430Z,3.10
2023-01-18T06:46:48.949Z,3.10
2023-01-18T06:49:20.188Z,3.10
2023-01-18T06:51:53.344Z,3.00
2023-01-18T06:54:25.003Z,3.10
2023-01-18T06:56:55.651Z,3.00
2023-01-18T06:59:28.781Z,3.00
2023-01-18T07:02:00.526Z,3.10
2023-01-18T07:04:35.465Z,3.00
2023-01-18T07:07:09.646Z,3.10
2023-01-18T07:09:41.882Z,3.00
2023-01-18T07:12:13.170Z,3.00
2023-01-18T07:14:44.354Z,3.00
2023-01-18T07:17:15.451Z,3.10
2023-01-18T07:19:47.543Z,3.10
2023-01-18T07:22:21.001Z,3.10
2023-01-18T07:24:52.183Z,3.10
2023-01-18T07:27:22.664Z,3.10
2023-01-18T07:29:55.561Z,3.10
2023-01-18T07:32:26.441Z,3.10
2023-01-18T07:34:59.449Z,3.00
2023-01-18T07:37:33.804Z,3.10
2023-01-18T07:40:05.535Z,3.10
2023-01-18T07:42:36.320Z,3.10
2023-01-18T07:45:09.016Z,3.10
2023-01-18T07:47:39.961Z,3.10
2023-01-18T07:50:12.557Z,3.10
2023-01-18T07:52:46.518Z,3.20
2023-01-18T07:55:18.146Z,3.20
2023-01-18T07:57:48.934Z,3.20
2023-01-18T08:00:22.394Z,3.30
2023-01-18T08:02:54.254Z,3.30
2023-01-18T08:05:28.000Z,3.30
2023-01-18T08:08:01.587Z,3.30
2023-01-18T08:10:32.650Z,3.30
2023-01-18T08:13:03.679Z,3.30
2023-01-18T08:15:35.514Z,3.30
2023-01-18T08:18:07.216Z,3.30
2023-01-18T08:20:38.843Z,3.40
2023-01-18T08:23:12.395Z,3.30
2023-01-18T08:25:43.520Z,3.30
2023-01-18T08:28:15.033Z,3.30
2023-01-18T08:30:48.058Z,3.30
2023-01-18T08:33:19.006Z,3.40
2023-01-18T08:35:51.174Z,3.40
2023-01-18T08:38:24.984Z,3.40
2023-01-18T08:40:56.704Z,3.50
2023-01-18T08:43:27.962Z,3.50
2023-01-18T08:45:59.498Z,3.50
2023-01-18T08:48:30.411Z,3.60
2023-01-18T08:51:05.175Z,3.60
2023-01-18T08:53:38.781Z,3.60
2023-01-18T08:56:11.046Z,3.60
2023-01-18T08:58:41.988Z,3.60
2023-01-18T09:01:13.555Z,3.60
2023-01-18T09:03:45.181Z,3.60
2023-01-18T09:06:16.902Z,3.70
2023-01-18T09:08:53.469Z,3.70
2023-01-18T09:11:24.630Z,3.70
2023-01-18T09:14:01.258Z,3.70
2023-01-18T09:16:34.024Z,3.60
2023-01-18T09:19:06.574Z,3.60
2023-01-18T09:21:37.832Z,3.60
2023-01-18T09:24:11.189Z,3.60
2023-01-18T09:26:44.490Z,3.60
2023-01-18T09:29:16.664Z,3.60
2023-01-18T09:31:49.366Z,3.60
2023-01-18T09:34:20.387Z,3.60
2023-01-18T09:36:54.133Z,3.70
2023-01-18T09:39:27.549Z,3.70
2023-01-18T09:42:01.990Z,3.60
2023-01-18T09:44:35.755Z,3.60
2023-01-18T09:47:14.832Z,3.60
2023-01-18T09:49:55.146Z,3.70
2023-01-18T09:52:36.118Z,3.60
2023-01-18T09:55:18.426Z,3.60
2023-01-18T09:58:06.568Z,3.70
2023-01-18T10:00:43.062Z,3.70
2023-01-18T10:03:20.007Z,3.70
2023-01-18T10:06:08.757Z,3.80
2023-01-18T10:08:48.563Z,3.80
2023-01-18T10:11:27.395Z,3.80
2023-01-18T10:14:06.584Z,3.80
2023-01-18T10:16:40.696Z,3.80
2023-01-18T10:19:19.346Z,3.80
2023-01-18T10:21:58.127Z,3.80
2023-01-18T10:24:38.252Z,3.70
2023-01-18T10:27:32.095Z,3.80
2023-01-18T10:30:17.478Z,3.70
2023-01-18T10:32:53.879Z,3.70
2023-01-18T10:35:32.332Z,3.70
2023-01-18T10:38:07.876Z,3.70
2023-01-18T10:40:40.607Z,3.70
2023-01-18T10:43:20.771Z,3.70
2023-01-18T10:45:53.496Z,3.70
2023-01-18T10:48:33.140Z,3.60
2023-01-18T10:51:06.268Z,3.60
2023-01-18T10:53:38.900Z,3.60
2023-01-18T10:56:15.911Z,3.60
2023-01-18T10:58:56.194Z,3.60
2023-01-18T11:01:29.487Z,3.60
2023-01-18T11:04:06.298Z,3.70
2023-01-18T11:06:48.789Z,3.70
2023-01-18T11:09:44.399Z,3.70
2023-01-18T11:12:37.619Z,3.70
2023-01-18T11:15:37.815Z,3.70
2023-01-18T11:18:13.355Z,3.70
2023-01-18T11:20:50.266Z,3.70
2023-01-18T11:23:25.660Z,3.70
2023-01-18T11:26:00.937Z,3.70
2023-01-18T11:28:37.979Z,3.70
2023-01-18T11:31:18.221Z,3.70
2023-01-18T11:33:54.948Z,3.70
2023-01-18T11:36:37.873Z,3.70
2023-01-18T11:39:27.617Z,3.70
2023-01-18T11:42:15.220Z,3.70
2023-01-18T11:44:51.995Z,3.80
2023-01-18T11:47:32.348Z,3.80
2023-01-18T11:50:21.244Z,3.80
2023-01-18T11:52:56.806Z,3.80
2023-01-18T11:55:36.608Z,3.80
2023-01-18T12:05:59.394Z,3.80
2023-01-18T12:09:14.320Z,3.80
2023-01-18T12:12:18.196Z,3.80
2023-01-18T12:15:01.319Z,3.80
2023-01-18T12:18:07.815Z,3.80
2023-01-18T12:21:03.711Z,3.80
2023-01-18T12:23:56.841Z,3.80
2023-01-18T12:26:39.736Z,3.80
2023-01-18T12:29:32.265Z,3.80
2023-01-18T12:32:13.643Z,3.80
2023-01-18T12:34:45.084Z,3.80
2023-01-18T12:37:34.488Z,3.80
2023-01-18T12:40:34.330Z,3.80
2023-01-18T12:43:15.373Z,3.80
2023-01-18T12:45:51.440Z,3.80
2023-01-18T12:48:27.915Z,3.80
2023-01-18T12:51:00.667Z,3.80
2023-01-18T12:53:41.442Z,3.90
2023-01-18T12:56:18.032Z,3.90
2023-01-18T12:58:53.002Z,3.80
2023-01-18T13:01:24.911Z,3.90
2023-01-18T13:04:05.142Z,3.90
2023-01-18T13:06:36.239Z,3.90
2023-01-18T13:09:16.765Z,3.90
2023-01-18T13:11:48.676Z,3.90
2023-01-18T13:14:27.176Z,3.90
2023-01-18T13:17:09.083Z,3.90
2023-01-18T13:19:45.972Z,3.90
2023-01-18T13:22:28.684Z,3.80
2023-01-18T13:25:26.577Z,3.80
2023-01-18T13:28:02.885Z,3.80
2023-01-18T13:30:36.098Z,3.80
2023-01-18T13:33:17.274Z,3.80
2023-01-18T13:35:54.681Z,3.90
2023-01-18T13:38:40.722Z,3.90
2023-01-18T13:41:17.086Z,3.90
2023-01-18T13:44:06.968Z,3.90
2023-01-18T13:46:42.582Z,3.90
2023-01-18T13:49:38.723Z,3.90
2023-01-18T13:52:35.776Z,3.90
2023-01-18T13:55:26.184Z,3.90
2023-01-18T13:58:00.505Z,3.90
2023-01-18T14:00:32.998Z,3.90
2023-01-18T14:03:09.094Z,3.90
2023-01-18T14:05:41.866Z,3.90
2023-01-18T14:08:23.220Z,4.00
2023-01-18T14:10:54.526Z,4.00
2023-01-18T14:13:55.245Z,4.00
2023-01-18T14:16:30.998Z,4.00
2023-01-18T14:19:06.645Z,4.00
2023-01-18T14:21:49.832Z,4.00
2023-01-18T14:24:37.922Z,4.00
2023-01-18T14:27:11.386Z,4.10
2023-01-18T14:29:48.640Z,4.10
2023-01-18T14:32:26.299Z,4.10
2023-01-18T14:35:02.102Z,4.10
2023-01-18T14:37:34.646Z,4.20
2023-01-18T14:40:16.939Z,4.20
2023-01-18T14:42:51.941Z,4.10
2023-01-18T14:45:30.705Z,4.00
2023-01-18T14:48:06.052Z,4.10
2023-01-18T14:50:41.535Z,4.00
2023-01-18T14:53:19.166Z,4.00
2023-01-18T14:56:09.933Z,4.00
2023-01-18T14:58:43.809Z,4.00
2023-01-18T15:01:32.570Z,4.00
2023-01-18T15:04:08.319Z,4.00
2023-01-18T15:06:44.651Z,4.00
2023-01-18T15:09:16.659Z,4.00
2023-01-18T15:11:49.532Z,4.10
2023-01-18T15:14:23.518Z,4.00
2023-01-18T15:16:56.538Z,4.00
2023-01-18T15:19:35.960Z,4.00
2023-01-18T15:22:08.620Z,4.00
2023-01-18T15:24:42.875Z,4.00
2023-01-18T15:27:16.645Z,4.00
2023-01-18T15:29:50.915Z,4.00
2023-01-18T15:32:25.450Z,4.00
2023-01-18T15:35:00.356Z,4.00
2023-01-18T15:37:34.063Z,4.00
2023-01-18T15:40:07.388Z,4.00
2023-01-18T15:42:44.684Z,4.00
2023-01-18T15:45:22.528Z,4.00
2023-01-18T15:47:56.539Z,3.90
2023-01-18T15:50:36.441Z,3.90
2023-01-18T15:53:12.150Z,3.90
2023-01-18T15:55:48.565Z,3.90
2023-01-18T15:58:32.207Z,3.90
2023-01-18T16:01:05.050Z,3.90
2023-01-18T16:03:39.336Z,3.90
2023-01-18T16:06:20.111Z,3.90
2023-01-18T16:09:02.482Z,3.90
2023-01-18T16:11:35.088Z,3.90
2023-01-18T16:14:13.303Z,3.90
2023-01-18T16:16:44.992Z,3.90
2023-01-18T16:19:24.563Z,3.80
2023-01-18T16:22:00.485Z,3.80
2023-01-18T16:24:37.553Z,3.80
2023-01-18T16:27:14.627Z,3.80
2023-01-18T16:29:47.751Z,3.80
2023-01-18T16:32:34.787Z,3.80
2023-01-18T16:35:14.744Z,3.80
2023-01-18T16:37:49.144Z,3.70
2023-01-18T16:40:23.163Z,3.70
2023-01-18T16:43:05.133Z,3.70
2023-01-18T16:45:38.712Z,3.70
2023-01-18T16:48:10.911Z,3.70
2023-01-18T16:50:41.920Z,3.70
2023-01-18T16:53:15.933Z,3.70
2023-01-18T16:55:48.443Z,3.70
2023-01-18T16:58:21.514Z,3.70
2023-01-18T17:00:58.670Z,3.70
2023-01-18T17:03:30.532Z,3.70
2023-01-18T17:06:02.632Z,3.70
2023-01-18T17:08:36.295Z,3.70
2023-01-18T17:11:08.270Z,3.70
2023-01-18T17:13:39.086Z,3.70
2023-01-18T17:16:17.005Z,3.70
2023-01-18T17:18:49.990Z,3.70
2023-01-18T17:21:21.321Z,3.70
2023-01-18T17:23:55.442Z,3.70
2023-01-18T17:26:26.427Z,3.60
2023-01-18T17:28:57.191Z,3.60
2023-01-18T17:31:29.712Z,3.60
2023-01-18T17:34:02.432Z,3.60
2023-01-18T17:36:33.884Z,3.60
2023-01-18T17:39:08.960Z,3.60
2023-01-18T17:41:40.757Z,3.60
2023-01-18T17:44:11.667Z,3.60
2023-01-18T17:46:42.772Z,3.50
2023-01-18T17:49:13.482Z,3.50
2023-01-18T17:51:44.519Z,3.50
2023-01-18T17:54:21.032Z,3.50
2023-01-18T17:56:53.352Z,3.50
2023-01-18T17:59:24.983Z,3.40
2023-01-18T18:01:57.317Z,3.40
2023-01-18T18:04:28.109Z,3.40
2023-01-18T18:06:59.852Z,3.40
2023-01-18T18:09:38.301Z,3.40
2023-01-18T18:12:09.950Z,3.40
2023-01-18T18:14:41.085Z,3.40
2023-01-18T18:17:12.265Z,3.40
2023-01-18T18:19:43.371Z,3.40
2023-01-18T18:22:14.341Z,3.30
2023-01-18T18:24:47.640Z,3.30
2023-01-18T18:27:21.066Z,3.30
2023-01-18T18:29:52.713Z,3.20
2023-01-18T18:32:23.768Z,3.30
2023-01-18T18:34:54.566Z,3.20
2023-01-18T18:37:25.772Z,3.20
2023-01-18T18:39:59.202Z,3.20
2023-01-18T18:42:31.040Z,3.20
2023-01-18T18:45:01.788Z,3.20
2023-01-18T18:47:33.202Z,3.20
2023-01-18T18:50:03.850Z,3.20
2023-01-18T18:52:35.579Z,3.20
2023-01-18T18:55:11.239Z,3.10
2023-01-18T18:57:42.635Z,3.10
2023-01-18T19:00:14.870Z,3.10
2023-01-18T19:02:46.833Z,3.10
2023-01-18T19:05:18.140Z,3.10
2023-01-18T19:07:51.208Z,3.00
2023-01-18T19:10:30.785Z,3.00
2023-01-18T19:13:05.032Z,3.00
2023-01-18T19:15:40.560Z,3.00
2023-01-18T19:18:12.928Z,3.10
2023-01-18T19:20:44.292Z,3.00
2023-01-18T19:23:15.847Z,3.00
2023-01-18T19:25:51.170Z,3.00
2023-01-18T19:28:23.115Z,3.00
2023-01-18T19:30:55.166Z,3.00
2023-01-18T19:33:27.741Z,3.00
2023-01-18T19:35:59.161Z,2.90
2023-01-18T19:38:30.438Z,2.90
2023-01-18T19:41:06.784Z,2.90
2023-01-18T19:43:39.023Z,2.90
2023-01-18T19:46:11.115Z,2.90
2023-01-18T19:48:42.554Z,2.90
2023-01-18T19:51:21.738Z,2.90
2023-01-18T19:53:55.447Z,2.90
2023-01-18T19:56:30.533Z,2.90
2023-01-18T19:59:03.999Z,2.90
2023-01-18T20:01:37.247Z,2.90
2023-01-18T20:04:09.755Z,2.90
2023-01-18T20:06:43.601Z,2.90
2023-01-18T20:09:22.084Z,2.90
2023-01-18T20:11:57.999Z,2.90
2023-01-18T20:14:40.429Z,2.90
2023-01-18T20:17:12.387Z,2.90
2023-01-18T20:19:44.366Z,2.90
2023-01-18T20:22:15.784Z,3.00
2023-01-18T20:24:49.831Z,2.90
2023-01-18T20:27:25.478Z,2.90
2023-01-18T20:30:00.063Z,2.90
2023-01-18T20:32:30.976Z,3.00
2023-01-18T20:35:02.805Z,2.90
2023-01-18T20:37:35.557Z,2.90
2023-01-18T20:40:06.994Z,2.90
2023-01-18T20:42:41.413Z,2.90
2023-01-18T20:45:13.258Z,2.80
2023-01-18T20:47:45.065Z,2.90
2023-01-18T20:50:16.475Z,2.90
2023-01-18T20:52:47.062Z,2.90
2023-01-18T20:55:19.018Z,2.90
2023-01-18T20:57:54.818Z,2.90
2023-01-18T21:00:26.777Z,2.90
2023-01-18T21:02:57.752Z,3.00
2023-01-18T21:05:30.878Z,2.90
2023-01-18T21:08:02.315Z,2.90
2023-01-18T21:10:38.841Z,2.90
2023-01-18T21:13:18.319Z,2.90
2023-01-18T21:15:57.874Z,2.90
2023-01-18T21:18:29.778Z,2.90
2023-01-18T21:21:02.531Z,2.90
2023-01-18T21:23:39.637Z,2.90
2023-01-18T21:26:14.337Z,2.90
2023-01-18T21:28:48.440Z,2.90
2023-01-18T21:31:21.387Z,2.90
2023-01-18T21:33:53.169Z,2.90
2023-01-18T21:36:27.133Z,2.90
2023-01-18T21:39:01.927Z,2.90
2023-01-18T21:41:45.498Z,2.90
2023-01-18T21:44:31.490Z,2.90
2023-01-18T21:47:04.637Z,3.00
2023-01-18T21:52:53.909Z,3.00
2023-01-18T21:55:27.161Z,3.00
2023-01-18T21:58:10.802Z,3.10
2023-01-18T22:00:44.672Z,3.10
2023-01-18T22:03:18.726Z,3.10
2023-01-18T22:05:48.062Z,3.10
2023-01-18T22:08:19.843Z,3.10
2023-01-18T22:10:50.994Z,3.10
2023-01-18T22:13:24.524Z,3.10
2023-01-18T22:15:58.673Z,3.10
2023-01-18T22:18:31.511Z,3.10
2023-01-18T22:21:02.666Z,3.20
2023-01-18T22:23:34.765Z,3.20
2023-01-18T22:26:06.262Z,3.20
2023-01-18T22:28:37.520Z,3.20
2023-01-18T22:31:13.110Z,3.20
2023-01-18T22:33:45.779Z,3.20
2023-01-18T22:36:16.612Z,3.20
2023-01-18T22:38:48.402Z,3.20
2023-01-18T22:41:21.663Z,3.30
2023-01-18T22:43:54.677Z,3.20
2023-01-18T22:46:28.268Z,3.30
2023-01-18T22:49:00.699Z,3.30
2023-01-18T22:51:31.660Z,3.20
2023-01-18T22:54:02.969Z,3.20
2023-01-18T22:56:33.530Z,3.20
2023-01-18T22:59:06.115Z,3.20
2023-01-18T23:01:40.931Z,3.20
2023-01-18T23:04:13.207Z,3.20
2023-01-18T23:06:50.930Z,3.30
2023-01-18T23:09:23.275Z,3.30
2023-01-18T23:11:54.590Z,3.20
2023-01-18T23:14:38.212Z,3.20
2023-01-18T23:17:25.943Z,3.30
2023-01-18T23:19:57.216Z,3.30
2023-01-18T23:22:28.181Z,3.30
2023-01-18T23:24:59.975Z,3.30
2023-01-18T23:27:30.923Z,3.30
2023-01-18T23:30:02.870Z,3.30
2023-01-18T23:32:37.583Z,3.30
2023-01-18T23:35:10.907Z,3.30
2023-01-18T23:37:41.857Z,3.40
2023-01-18T23:40:26.790Z,3.40
2023-01-18T23:43:09.941Z,3.40
2023-01-18T23:45:53.601Z,3.40
2023-01-18T23:48:39.586Z,3.40
2023-01-18T23:51:23.282Z,3.40
2023-01-18T23:54:06.462Z,3.40
2023-01-18T23:56:38.138Z,3.40
2023-01-18T23:59:09.252Z,3.40
